createdAt,value
2018-11-04T00:02:02.739Z,13.73
2018-11-04T00:04:31.570Z,12.97
2018-11-04T00:07:00.413Z,13.87
2018-11-04T00:09:29.288Z,13.50
2018-11-04T00:11:58.101Z,13.07
2018-11-04T00:14:26.956Z,14.10
2018-11-04T00:16:55.787Z,14.68
2018-11-04T00:19:24.635Z,13.50
2018-11-04T00:21:53.470Z,13.70
2018-11-04T00:24:23.063Z,14.10
2018-11-04T00:26:51.954Z,13.23
2018-11-04T00:29:20.742Z,13.53
2018-11-04T00:31:49.598Z,13.13
2018-11-04T00:34:18.465Z,14.98
2018-11-04T00:36:47.279Z,13.93
2018-11-04T00:39:16.113Z,13.23
2018-11-04T00:41:45.710Z,14.07
2018-11-04T00:44:14.555Z,15.25
2018-11-04T00:46:43.390Z,12.97
2018-11-04T00:49:12.237Z,12.47
2018-11-04T00:51:41.069Z,15.10
2018-11-04T00:54:09.914Z,12.73
2018-11-04T00:56:38.750Z,13.57
2018-11-04T00:59:07.581Z,13.97
2018-11-04T01:01:36.440Z,14.20
2018-11-04T01:04:06.018Z,14.17
2018-11-04T01:06:34.873Z,13.90
2018-11-04T01:09:03.763Z,13.70
2018-11-04T01:11:33.303Z,13.60
2018-11-04T01:14:02.154Z,15.15
2018-11-04T01:16:30.999Z,15.27
2018-11-04T01:19:00.574Z,13.77
2018-11-04T01:21:29.413Z,13.90
2018-11-04T01:23:58.327Z,14.17
2018-11-04T01:26:27.095Z,14.00
2018-11-04T01:28:55.943Z,13.77
2018-11-04T01:31:24.781Z,14.17
2018-11-04T01:33:53.625Z,13.97
2018-11-04T01:36:22.481Z,13.40
2018-11-04T01:38:51.330Z,15.40
2018-11-04T01:41:20.178Z,13.47
2018-11-04T01:43:49.014Z,13.97
2018-11-04T01:46:17.872Z,12.20
2018-11-04T01:48:46.724Z,13.30
2018-11-04T01:51:15.563Z,15.18
2018-11-04T01:53:45.145Z,14.07
2018-11-04T01:56:14.009Z,15.57
2018-11-04T01:58:42.846Z,14.00
2018-11-04T02:01:11.688Z,13.53
2018-11-04T02:03:40.524Z,13.00
2018-11-04T02:06:10.128Z,15.07
2018-11-04T02:08:38.973Z,15.88
2018-11-04T02:11:07.827Z,15.18
2018-11-04T02:13:36.687Z,14.23
2018-11-04T02:16:05.532Z,14.47
2018-11-04T02:18:34.386Z,15.50
2018-11-04T02:21:03.963Z,15.13
2018-11-04T02:23:32.804Z,13.87
2018-11-04T02:26:01.641Z,14.40
2018-11-04T02:28:30.481Z,10.77
2018-11-04T02:30:59.333Z,13.57
2018-11-04T02:33:28.169Z,14.10
2018-11-04T02:35:57.029Z,14.07
2018-11-04T02:38:26.608Z,13.17
2018-11-04T02:40:55.449Z,13.70
2018-11-04T02:43:24.289Z,14.77
2018-11-04T02:45:53.159Z,14.43
2018-11-04T02:48:21.965Z,14.03
2018-11-04T02:50:50.797Z,14.43
2018-11-04T02:53:19.636Z,13.87
2018-11-04T02:55:48.478Z,15.13
2018-11-04T02:58:17.319Z,14.27
2018-11-04T03:00:46.163Z,14.67
2018-11-04T03:03:15.004Z,14.40
2018-11-04T03:05:43.851Z,13.63
2018-11-04T03:08:12.696Z,14.40
2018-11-04T03:10:42.270Z,14.47
2018-11-04T03:13:11.107Z,16.12
2018-11-04T03:15:39.944Z,15.20
2018-11-04T03:18:08.778Z,15.13
2018-11-04T03:20:38.365Z,14.13
2018-11-04T03:23:07.208Z,14.37
2018-11-04T03:25:36.055Z,15.33
2018-11-04T03:28:05.642Z,15.80
2018-11-04T03:30:34.487Z,15.13
2018-11-04T03:33:03.325Z,16.60
2018-11-04T03:35:32.171Z,15.33
2018-11-04T03:38:01.010Z,15.07
2018-11-04T03:40:30.822Z,15.07
2018-11-04T03:42:59.438Z,16.10
2018-11-04T03:45:28.269Z,14.73
2018-11-04T03:47:57.126Z,14.37
2018-11-04T03:50:25.958Z,13.97
2018-11-04T03:52:54.795Z,15.33
2018-11-04T03:55:23.635Z,14.43
2018-11-04T03:57:52.464Z,14.60
2018-11-04T04:00:21.298Z,16.07
2018-11-04T04:02:50.153Z,16.23
2018-11-04T04:05:18.977Z,15.43
2018-11-04T04:07:47.821Z,14.07
2018-11-04T04:10:16.667Z,15.17
2018-11-04T04:12:45.529Z,15.70
2018-11-04T04:15:14.349Z,16.30
2018-11-04T04:17:43.194Z,15.30
2018-11-04T04:20:12.038Z,16.37
2018-11-04T04:22:40.878Z,15.03
2018-11-04T04:25:09.732Z,15.93
2018-11-04T04:27:39.305Z,15.00
2018-11-04T04:30:08.158Z,15.83
2018-11-04T04:32:37.009Z,17.50
2018-11-04T04:35:05.848Z,15.70
2018-11-04T04:37:34.690Z,16.37
2018-11-04T04:40:04.256Z,15.90
2018-11-04T04:42:33.091Z,15.13
2018-11-04T04:45:02.669Z,16.83
2018-11-04T04:47:31.529Z,17.43
2018-11-04T04:50:00.381Z,18.37
2018-11-04T04:52:29.222Z,17.00
2018-11-04T04:54:58.062Z,15.90
2018-11-04T04:57:26.916Z,16.40
2018-11-04T04:59:55.766Z,16.53
2018-11-04T05:02:24.649Z,17.07
2018-11-04T05:04:53.440Z,17.20
2018-11-04T05:07:22.277Z,17.17
2018-11-04T05:09:51.122Z,17.37
2018-11-04T05:12:19.953Z,16.20
2018-11-04T05:14:48.822Z,16.93
2018-11-04T05:17:17.649Z,17.00
2018-11-04T05:19:46.477Z,16.93
2018-11-04T05:22:15.312Z,17.83
2018-11-04T05:24:44.163Z,17.27
2018-11-04T05:27:13.016Z,18.77
2018-11-04T05:29:42.584Z,17.50
2018-11-04T05:32:11.419Z,16.10
2018-11-04T05:34:40.323Z,16.63
2018-11-04T05:37:09.838Z,17.57
2018-11-04T05:39:38.690Z,16.50
2018-11-04T05:42:08.284Z,17.60
2018-11-04T05:44:37.851Z,16.97
2018-11-04T05:47:06.700Z,18.83
2018-11-04T05:49:35.548Z,17.30
2018-11-04T05:52:04.393Z,17.13
2018-11-04T05:54:33.243Z,18.70
2018-11-04T05:57:02.820Z,16.47
2018-11-04T05:59:31.655Z,17.57
2018-11-04T06:02:01.231Z,17.17
2018-11-04T06:04:30.076Z,17.70
2018-11-04T06:06:58.907Z,17.63
2018-11-04T06:09:27.761Z,17.97
2018-11-04T06:11:56.590Z,17.63
2018-11-04T06:14:25.434Z,16.67
2018-11-04T06:16:54.269Z,18.45
2018-11-04T06:19:23.120Z,17.37
2018-11-04T06:21:51.938Z,17.90
2018-11-04T06:24:20.773Z,16.13
2018-11-04T06:26:49.600Z,17.47
2018-11-04T06:29:18.445Z,18.33
2018-11-04T06:31:47.269Z,16.63
2018-11-04T06:34:16.103Z,16.53
2018-11-04T06:36:45.698Z,16.87
2018-11-04T06:39:14.536Z,19.30
2018-11-04T06:41:43.376Z,19.42
2018-11-04T06:44:12.213Z,18.83
2018-11-04T06:46:41.061Z,16.83
2018-11-04T06:49:09.896Z,16.00
2018-11-04T06:51:38.729Z,18.80
2018-11-04T06:54:07.579Z,17.83
2018-11-04T06:56:36.424Z,17.73
2018-11-04T06:59:06.005Z,17.97
2018-11-04T07:01:34.838Z,17.57
2018-11-04T07:04:08.530Z,17.57
2018-11-04T07:06:37.366Z,18.60
2018-11-04T07:09:06.239Z,17.90
2018-11-04T07:11:35.789Z,18.57
2018-11-04T07:14:04.640Z,19.57
2018-11-04T07:17:04.451Z,20.35
2018-11-04T07:19:33.289Z,18.73
2018-11-04T07:22:02.134Z,17.97
2018-11-04T07:24:30.973Z,18.60
2018-11-04T07:26:59.828Z,18.90
2018-11-04T07:29:28.684Z,20.52
2018-11-04T07:31:57.565Z,18.80
2018-11-04T07:34:26.962Z,18.60
2018-11-04T07:36:55.798Z,19.90
2018-11-04T07:39:24.624Z,18.97
2018-11-04T07:41:54.203Z,18.10
2018-11-04T07:44:23.167Z,19.13
2018-11-04T07:46:51.915Z,19.33
2018-11-04T07:49:21.508Z,18.80
2018-11-04T07:51:50.340Z,18.27
2018-11-04T07:54:19.172Z,17.80
2018-11-04T07:56:48.089Z,18.63
2018-11-04T07:59:16.872Z,22.23
2018-11-04T08:01:45.711Z,20.40
2018-11-04T08:04:14.574Z,19.13
2018-11-04T08:06:44.138Z,20.27
2018-11-04T08:09:12.974Z,20.87
2018-11-04T08:11:41.846Z,22.97
2018-11-04T08:14:10.686Z,22.03
2018-11-04T08:16:39.528Z,22.40
2018-11-04T08:19:09.099Z,21.17
2018-11-04T08:21:37.954Z,24.70
2018-11-04T08:24:06.798Z,20.97
2018-11-04T08:26:35.647Z,22.97
2018-11-04T08:29:04.470Z,21.37
2018-11-04T08:31:34.055Z,21.03
2018-11-04T08:34:02.909Z,22.80
2018-11-04T08:36:31.754Z,21.63
2018-11-04T08:39:00.600Z,22.93
2018-11-04T08:41:29.457Z,22.23
2018-11-04T08:43:58.304Z,22.03
2018-11-04T08:46:27.923Z,23.30
2018-11-04T08:48:56.802Z,23.10
2018-11-04T08:51:25.637Z,25.87
2018-11-04T08:53:54.474Z,21.67
2018-11-04T08:56:23.326Z,20.60
2018-11-04T08:58:52.173Z,20.43
2018-11-04T09:01:21.016Z,21.60
2018-11-04T09:03:49.920Z,20.53
2018-11-04T09:06:18.860Z,22.80
2018-11-04T09:08:48.425Z,16.50
2018-11-04T09:11:17.263Z,22.77
2018-11-04T09:13:46.131Z,21.57
2018-11-04T09:16:15.764Z,22.03
2018-11-04T09:18:44.608Z,24.67
2018-11-04T09:21:13.451Z,27.97
2018-11-04T09:23:42.396Z,25.37
2018-11-04T09:26:11.136Z,24.50
2018-11-04T09:28:39.988Z,24.70
2018-11-04T09:31:08.840Z,23.67
2018-11-04T09:33:37.676Z,25.60
2018-11-04T09:36:06.646Z,22.67
2018-11-04T09:38:35.392Z,22.07
2018-11-04T09:41:04.235Z,22.83
2018-11-04T09:43:33.089Z,22.97
2018-11-04T09:46:01.922Z,24.05
2018-11-04T09:48:31.497Z,22.60
2018-11-04T09:51:00.352Z,22.80
2018-11-04T09:53:29.203Z,24.85
2018-11-04T09:55:58.050Z,22.77
2018-11-04T09:58:26.889Z,21.60
2018-11-04T10:00:55.864Z,22.23
2018-11-04T10:03:24.684Z,21.80
2018-11-04T10:05:53.535Z,21.03
2018-11-04T10:08:22.357Z,21.20
2018-11-04T10:10:51.214Z,21.93
2018-11-04T10:13:20.096Z,22.43
2018-11-04T10:15:48.895Z,21.77
2018-11-04T10:18:17.800Z,20.50
2018-11-04T10:20:47.039Z,22.52
2018-11-04T10:23:15.488Z,20.17
2018-11-04T10:25:44.315Z,21.27
2018-11-04T10:28:13.175Z,21.70
2018-11-04T10:30:42.768Z,16.67
2018-11-04T10:33:11.616Z,13.63
2018-11-04T10:35:40.455Z,20.10
2018-11-04T10:38:09.305Z,19.00
2018-11-04T10:40:38.153Z,17.50
2018-11-04T10:43:07.017Z,18.97
2018-11-04T10:45:36.597Z,20.87
2018-11-04T10:48:06.217Z,19.73
2018-11-04T10:50:35.807Z,21.50
2018-11-04T10:53:08.134Z,18.67
2018-11-04T10:55:36.355Z,19.50
2018-11-04T10:58:05.164Z,18.47
2018-11-04T11:00:34.016Z,19.13
2018-11-04T11:03:02.853Z,18.70
2018-11-04T11:05:31.712Z,17.53
2018-11-04T11:08:00.556Z,17.63
2018-11-04T11:10:29.414Z,18.40
2018-11-04T11:12:58.992Z,17.97
2018-11-04T11:15:27.991Z,18.07
2018-11-04T11:17:56.792Z,19.50
2018-11-04T11:20:26.379Z,19.10
2018-11-04T11:22:55.369Z,16.47
2018-11-04T11:25:24.077Z,16.33
2018-11-04T11:27:53.680Z,16.53
2018-11-04T11:30:23.273Z,14.87
2018-11-04T11:32:52.137Z,14.53
2018-11-04T11:35:21.033Z,16.37
2018-11-04T11:37:49.910Z,14.80
2018-11-04T11:40:18.715Z,14.47
2018-11-04T11:42:47.557Z,14.77
2018-11-04T11:45:16.445Z,14.83
2018-11-04T11:47:45.991Z,14.47
2018-11-04T11:50:14.953Z,15.67
2018-11-04T11:52:43.978Z,15.47
2018-11-04T11:55:12.700Z,16.40
2018-11-04T11:57:42.302Z,15.87
2018-11-04T12:00:11.151Z,15.50
2018-11-04T12:02:40.006Z,18.07
2018-11-04T12:05:08.844Z,15.90
2018-11-04T12:07:37.689Z,16.07
2018-11-04T12:10:06.522Z,15.73
2018-11-04T12:12:35.397Z,14.97
2018-11-04T12:15:04.251Z,15.73
2018-11-04T12:17:33.098Z,16.00
2018-11-04T12:20:01.917Z,15.47
2018-11-04T12:22:30.752Z,16.73
2018-11-04T12:24:59.610Z,18.27
2018-11-04T12:27:28.557Z,21.40
2018-11-04T12:29:57.401Z,21.10
2018-11-04T12:32:26.247Z,20.40
2018-11-04T12:34:55.837Z,18.30
2018-11-04T12:37:25.425Z,22.00
2018-11-04T12:39:54.257Z,23.87
2018-11-04T12:42:23.851Z,28.80
2018-11-04T12:44:52.696Z,87.63
2018-11-04T12:47:21.534Z,24.30
2018-11-04T12:49:51.114Z,20.87
2018-11-04T12:52:20.041Z,18.70
2018-11-04T12:54:48.794Z,17.93
2018-11-04T12:57:17.636Z,19.20
2018-11-04T12:59:46.585Z,17.10
2018-11-04T13:02:15.479Z,17.23
2018-11-04T13:04:44.322Z,17.10
2018-11-04T13:07:13.165Z,18.37
2018-11-04T13:09:42.765Z,17.37
2018-11-04T13:12:11.619Z,16.10
2018-11-04T13:14:40.464Z,19.20
2018-11-04T13:17:10.087Z,16.57
2018-11-04T13:19:42.271Z,15.97
2018-11-04T13:22:11.123Z,19.48
2018-11-04T13:24:40.713Z,23.73
2018-11-04T13:27:09.587Z,22.77
2018-11-04T13:29:38.483Z,21.43
2018-11-04T13:32:07.333Z,19.80
2018-11-04T13:34:36.174Z,25.97
2018-11-04T13:37:05.017Z,18.83
2018-11-04T13:39:33.851Z,17.80
2018-11-04T13:42:02.699Z,20.33
2018-11-04T13:44:31.544Z,18.33
2018-11-04T13:47:00.402Z,18.63
2018-11-04T13:49:29.337Z,19.52
2018-11-04T13:51:58.088Z,22.77
2018-11-04T13:54:27.677Z,15.07
2018-11-04T13:56:56.515Z,15.68
2018-11-04T13:59:25.358Z,16.90
2018-11-04T14:01:54.224Z,14.00
2018-11-04T14:04:23.089Z,13.13
2018-11-04T14:06:52.492Z,13.50
2018-11-04T14:09:21.369Z,12.70
2018-11-04T14:11:50.979Z,11.50
2018-11-04T14:14:19.849Z,11.87
2018-11-04T14:16:49.431Z,11.67
2018-11-04T14:19:18.273Z,11.77
2018-11-04T14:21:47.118Z,12.10
2018-11-04T14:24:15.972Z,11.53
2018-11-04T14:26:44.813Z,11.20
2018-11-04T14:29:13.651Z,11.30
2018-11-04T14:31:42.491Z,11.23
2018-11-04T14:34:11.349Z,11.30
2018-11-04T14:36:40.188Z,12.13
2018-11-04T14:39:09.029Z,11.80
2018-11-04T14:41:37.870Z,10.87
2018-11-04T14:44:06.736Z,10.63
2018-11-04T14:46:35.619Z,11.40
2018-11-04T14:49:04.458Z,11.90
2018-11-04T14:51:33.300Z,10.27
2018-11-04T14:54:02.175Z,10.97
2018-11-04T14:56:31.019Z,11.20
2018-11-04T14:58:59.825Z,11.10
2018-11-04T15:01:28.714Z,11.60
2018-11-04T15:03:57.522Z,11.93
2018-11-04T15:06:26.367Z,10.70
2018-11-04T15:08:55.211Z,10.97
2018-11-04T15:11:24.784Z,10.30
2018-11-04T15:13:53.636Z,11.10
2018-11-04T15:16:22.480Z,10.57
2018-11-04T15:18:51.506Z,10.90
2018-11-04T15:21:20.195Z,12.25
2018-11-04T15:23:49.781Z,11.03
2018-11-04T15:26:18.633Z,11.98
2018-11-04T15:28:47.473Z,11.20
2018-11-04T15:31:16.318Z,11.17
2018-11-04T15:33:45.159Z,10.53
2018-11-04T15:36:14.742Z,10.67
2018-11-04T15:38:43.664Z,11.25
2018-11-04T15:41:12.453Z,9.40
2018-11-04T15:43:42.042Z,10.70
2018-11-04T15:46:10.878Z,9.43
2018-11-04T15:48:39.726Z,11.65
2018-11-04T15:51:09.298Z,9.83
2018-11-04T15:53:38.136Z,9.93
2018-11-04T15:56:06.991Z,10.23
2018-11-04T15:58:35.841Z,9.80
2018-11-04T16:01:04.685Z,11.40
2018-11-04T16:03:34.267Z,12.17
2018-11-04T16:06:03.305Z,14.17
2018-11-04T16:08:32.048Z,12.90
2018-11-04T16:11:00.896Z,11.50
2018-11-04T16:13:29.745Z,10.73
2018-11-04T16:15:59.467Z,9.53
2018-11-04T16:18:28.258Z,10.32
2018-11-04T16:20:57.046Z,10.33
2018-11-04T16:23:25.897Z,9.97
2018-11-04T16:25:54.733Z,9.27
2018-11-04T16:28:23.574Z,10.23
2018-11-04T16:30:52.428Z,10.10
2018-11-04T16:33:21.337Z,10.00
2018-11-04T16:35:50.118Z,10.93
2018-11-04T16:38:18.961Z,12.20
2018-11-04T16:40:48.545Z,8.17
2018-11-04T16:43:17.415Z,10.03
2018-11-04T16:45:46.243Z,9.30
2018-11-04T16:48:15.818Z,10.20
2018-11-04T16:50:44.660Z,9.63
2018-11-04T16:53:13.544Z,10.33
2018-11-04T16:55:43.121Z,9.70
2018-11-04T16:58:11.967Z,13.10
2018-11-04T17:00:40.812Z,15.67
2018-11-04T17:03:09.656Z,14.83
2018-11-04T17:05:38.790Z,13.77
2018-11-04T17:08:07.342Z,11.40
2018-11-04T17:10:36.187Z,11.85
2018-11-04T17:13:05.770Z,11.27
2018-11-04T17:15:34.607Z,11.80
2018-11-04T17:18:04.466Z,10.33
2018-11-04T17:20:33.263Z,10.37
2018-11-04T17:23:02.839Z,11.27
2018-11-04T17:25:31.680Z,11.97
2018-11-04T17:28:00.527Z,10.90
2018-11-04T17:30:29.364Z,10.80
2018-11-04T17:32:58.211Z,10.93
2018-11-04T17:35:27.805Z,10.10
2018-11-04T17:37:56.651Z,11.10
2018-11-04T17:40:25.507Z,10.87
2018-11-04T17:42:54.350Z,11.33
2018-11-04T17:45:23.221Z,10.60
2018-11-04T17:47:52.799Z,7.90
2018-11-04T17:50:21.634Z,10.60
2018-11-04T17:52:50.484Z,10.73
2018-11-04T17:55:20.118Z,10.00
2018-11-04T17:57:49.674Z,10.33
2018-11-04T18:00:18.573Z,10.70
2018-11-04T18:02:47.355Z,12.73
2018-11-04T18:05:16.214Z,15.43
2018-11-04T18:07:45.058Z,13.30
2018-11-04T18:10:14.638Z,13.67
2018-11-04T18:12:43.498Z,16.17
2018-11-04T18:15:12.338Z,13.30
2018-11-04T18:17:41.928Z,13.90
2018-11-04T18:20:10.779Z,13.90
2018-11-04T18:22:39.610Z,13.70
2018-11-04T18:25:09.221Z,12.10
2018-11-04T18:27:38.863Z,12.85
2018-11-04T18:30:07.665Z,12.32
2018-11-04T18:32:36.522Z,12.47
2018-11-04T18:35:05.412Z,11.77
2018-11-04T18:37:34.379Z,12.00
2018-11-04T18:40:03.254Z,10.00
2018-11-04T18:42:32.095Z,11.00
2018-11-04T18:45:00.994Z,10.37
2018-11-04T18:47:29.789Z,10.97
2018-11-04T18:49:58.636Z,10.93
2018-11-04T18:52:28.246Z,11.00
2018-11-04T18:54:57.069Z,12.00
2018-11-04T18:57:25.920Z,10.90
2018-11-04T18:59:54.759Z,12.43
2018-11-04T19:02:23.666Z,15.60
2018-11-04T19:04:52.509Z,16.30
2018-11-04T19:07:21.371Z,17.03
2018-11-04T19:09:50.805Z,16.70
2018-11-04T19:12:19.664Z,15.87
2018-11-04T19:14:48.521Z,15.80
2018-11-04T19:17:17.360Z,19.07
2018-11-04T19:19:46.946Z,18.37
2018-11-04T19:22:15.821Z,16.57
2018-11-04T19:24:44.672Z,17.02
2018-11-04T19:27:13.506Z,15.10
2018-11-04T19:29:42.344Z,14.07
2018-11-04T19:32:11.201Z,13.30
2018-11-04T19:34:40.059Z,13.50
2018-11-04T19:37:08.930Z,15.07
2018-11-04T19:39:37.760Z,15.00
2018-11-04T19:42:06.610Z,14.17
2018-11-04T19:44:35.663Z,14.37
2018-11-04T19:47:04.475Z,14.00
2018-11-04T19:49:33.347Z,13.60
2018-11-04T19:52:02.201Z,13.43
2018-11-04T19:54:31.038Z,13.47
2018-11-04T19:56:59.899Z,13.33
2018-11-04T19:59:28.752Z,12.10
2018-11-04T20:01:57.593Z,13.97
2018-11-04T20:04:26.473Z,14.87
2018-11-04T20:06:56.051Z,13.87
2018-11-04T20:09:25.483Z,14.85
2018-11-04T20:11:55.063Z,12.83
2018-11-04T20:14:23.968Z,14.30
2018-11-04T20:16:52.880Z,11.47
2018-11-04T20:19:25.401Z,12.88
2018-11-04T20:21:54.157Z,12.10
2018-11-04T20:24:22.997Z,11.80
2018-11-04T20:26:51.855Z,10.80
2018-11-04T20:29:21.007Z,13.10
2018-11-04T20:31:51.599Z,14.40
2018-11-04T20:34:20.440Z,12.50
2018-11-04T20:36:49.314Z,12.23
2018-11-04T20:39:18.878Z,12.07
2018-11-04T20:41:47.726Z,10.80
2018-11-04T20:44:17.294Z,10.60
2018-11-04T20:46:46.140Z,11.50
2018-11-04T20:49:20.569Z,13.48
2018-11-04T20:51:49.419Z,12.13
2018-11-04T20:54:18.281Z,12.10
2018-11-04T20:56:52.756Z,8.83
2018-11-04T20:59:21.611Z,13.05
2018-11-04T21:01:51.239Z,12.47
2018-11-04T21:04:20.029Z,14.57
2018-11-04T21:06:48.891Z,13.40
2018-11-04T21:09:17.720Z,12.47
2018-11-04T21:11:46.568Z,12.80
2018-11-04T21:14:15.476Z,11.37
2018-11-04T21:16:44.345Z,12.63
2018-11-04T21:19:13.845Z,11.37
2018-11-04T21:21:42.689Z,11.83
2018-11-04T21:24:11.537Z,11.40
2018-11-04T21:26:40.395Z,11.40
2018-11-04T21:29:09.386Z,13.80
2018-11-04T21:31:38.143Z,11.90
2018-11-04T21:34:06.940Z,11.60
2018-11-04T21:36:35.872Z,13.27
2018-11-04T21:39:04.640Z,11.60
2018-11-04T21:41:33.484Z,10.80
2018-11-04T21:44:02.665Z,11.03
2018-11-04T21:46:31.927Z,11.90
2018-11-04T21:49:00.770Z,10.33
2018-11-04T21:51:29.631Z,11.00
2018-11-04T21:53:58.478Z,10.70
2018-11-04T21:56:27.437Z,11.20
2018-11-04T21:58:56.908Z,8.43
2018-11-04T22:01:25.762Z,10.90
2018-11-04T22:03:54.787Z,12.25
2018-11-04T22:06:23.466Z,11.30
2018-11-04T22:08:52.311Z,11.40
2018-11-04T22:11:21.157Z,12.57
2018-11-04T22:13:50.791Z,11.20
2018-11-04T22:16:19.582Z,11.85
2018-11-04T22:18:48.416Z,10.37
2018-11-04T22:21:17.256Z,10.43
2018-11-04T22:23:46.133Z,10.07
2018-11-04T22:26:15.710Z,11.33
2018-11-04T22:28:44.555Z,11.37
2018-11-04T22:31:13.390Z,12.13
2018-11-04T22:33:42.224Z,11.27
2018-11-04T22:36:11.073Z,11.77
2018-11-04T22:38:39.909Z,10.37
2018-11-04T22:41:08.749Z,11.17
2018-11-04T22:43:37.603Z,11.07
2018-11-04T22:46:06.439Z,13.55
2018-11-04T22:48:35.282Z,11.53
2018-11-04T22:51:04.113Z,11.13
2018-11-04T22:53:32.958Z,11.73
2018-11-04T22:56:02.043Z,11.17
2018-11-04T22:58:30.686Z,11.03
2018-11-04T23:01:00.298Z,11.47
2018-11-04T23:03:29.215Z,12.30
2018-11-04T23:05:58.056Z,12.55
2018-11-04T23:08:26.889Z,10.17
2018-11-04T23:10:55.737Z,11.07
2018-11-04T23:13:24.576Z,11.43
2018-11-04T23:15:53.418Z,12.20
2018-11-04T23:18:22.312Z,11.60
2018-11-04T23:20:51.101Z,12.47
2018-11-04T23:23:19.948Z,12.10
2018-11-04T23:25:48.791Z,12.73
2018-11-04T23:28:18.379Z,12.87
2018-11-04T23:30:47.230Z,14.52
2018-11-04T23:33:16.054Z,13.73
2018-11-04T23:35:44.895Z,12.30
2018-11-04T23:38:13.726Z,12.20
2018-11-04T23:40:42.697Z,12.93
2018-11-04T23:43:11.503Z,13.30
2018-11-04T23:45:40.337Z,12.70
2018-11-04T23:48:09.184Z,11.97
2018-11-04T23:50:38.020Z,12.23
2018-11-04T23:53:06.857Z,12.80
2018-11-04T23:55:35.684Z,12.57
2018-11-04T23:58:04.530Z,11.57
